Upstream stations:
Downstream station:
SHEF ID: COMO2 Neosho River nr Commerce, OK
STATION TYPE:
Regulating: Stage = 15.00, Flow = 22115
PRECIP STAGE STAGE(2) RIV-FLOW BAT-LOAD
in ft ft cfs volt
Ccp-Rev Ccp-Rev Ccp-Rev Ccp-Rev Ccp-Rev
(US/Central)
03/21 00:00 0.00 2.95 11.72 848 12.65
03/21 01:00 0.00 2.95 11.72 848 12.65
03/21 02:00 0.00 2.95 11.79 848 12.65
03/21 03:00 0.00 2.95 11.05 848 12.57
03/21 04:00 0.00 2.95 10.94 848 12.57
03/21 05:00 0.00 2.95 11.00 848 12.57
03/21 06:00 0.00 2.95 11.10 848 12.57
03/21 07:00 0.00 2.95 10.97 848 12.57
03/21 08:00 0.00 2.95 11.04 848 12.57
03/21 09:00 0.00 2.95 10.98 848 12.57
03/21 10:00 0.00 2.95 10.75 848 12.65
03/21 11:00 0.01 2.95 10.84 848 12.57
03/21 12:00 0.02 2.95 10.88 848 12.57
03/21 13:00 0.01 2.95 10.97 848 12.57
03/21 14:00 0.00 2.93 10.78 815 12.57
03/21 15:00 0.01 2.95 10.90 848 12.49
03/21 16:00 0.19 2.96 11.03 865 12.49
03/21 17:00 0.38 2.92 11.01 799 12.49
03/21 18:00 0.22 2.98 11.32 899 12.49
03/21 19:00 0.02 2.99 11.41 916 12.49
03/21 20:00 0.02 2.98 11.14 899 12.49
03/21 21:00 0.02 3.02 11.44 959 12.49
03/21 22:00 0.20 3.02 11.63 959 12.49
03/21 23:00 0.15 3.11 11.54 1079 12.49